Time;durP1;ratioP1;P1;durP2;ratioP2;P2;SDS_P1;SDS_P2;PMS_P1;PMS_P2;Temp;Humidity;BMP_temperature;BMP_pressure;BME280_temperature;BME280_humidity;BME280_pressure;Samples;Min_cycle;Max_cycle;Signal;HPM_P1;HPM_P2
2021/04/30 17:17:07;;;;;;;13.70;9.52;;;;;;;;;;5085124;28;21774;-75
2021/04/30 17:19:33;;;;;;;11.40;9.10;;;;;;;;;;5083957;28;20450;-74
2021/04/30 17:21:59;;;;;;;10.75;8.07;;;;;;;;;;5093057;28;20043;-75
2021/04/30 17:24:25;;;;;;;11.00;8.43;;;;;;;;;;5105466;28;20640;-75
2021/04/30 17:26:51;;;;;;;14.23;9.40;;;;;;;;;;5105136;28;20088;-76
2021/04/30 17:29:17;;;;;;;11.43;9.02;;;;;;;;;;5105414;28;20020;-75
2021/04/30 17:31:44;;;;;;;15.52;10.52;;;;;;;;;;5102912;28;20686;-75
2021/04/30 17:34:10;;;;;;;12.60;9.80;;;;;;;;;;5104248;28;20031;-76
2021/04/30 17:36:36;;;;;;;17.30;12.60;;;;;;;;;;5105336;28;20059;-74
2021/04/30 17:39:03;;;;;;;14.60;10.75;;;;;;;;;;5101377;28;20060;-75
2021/04/30 17:41:29;;;;;;;14.35;10.20;;;;;;;;;;5083202;28;20539;-75
2021/04/30 17:43:56;;;;;;;16.10;10.93;;;;;;;;;;5085042;28;20432;-75
2021/04/30 17:46:22;;;;;;;32.88;15.82;;;;;;;;;;5085105;28;20025;-75
2021/04/30 17:48:51;;;;;;;17.77;12.52;;;;;;;;;;5073764;28;20029;-75
2021/04/30 17:51:17;;;;;;;18.35;13.45;;;;;;;;;;5084531;28;20021;-75
2021/04/30 17:53:43;;;;;;;14.65;11.23;;;;;;;;;;5084309;28;20039;-76
2021/04/30 17:56:09;;;;;;;15.07;11.40;;;;;;;;;;5083824;28;20074;-77
2021/04/30 17:58:35;;;;;;;16.73;13.48;;;;;;;;;;5084874;28;20020;-77
2021/04/30 18:01:01;;;;;;;16.73;11.88;;;;;;;;;;5075909;22;20042;-69
2021/04/30 18:03:27;;;;;;;20.67;16.13;;;;;;;;;;5023198;28;20022;-72
2021/04/30 18:05:54;;;;;;;19.85;15.40;;;;;;;;;;5022929;28;20494;-72
2021/04/30 18:08:20;;;;;;;24.92;19.67;;;;;;;;;;5023661;28;20095;-73
2021/04/30 18:10:48;;;;;;;22.23;19.55;;;;;;;;;;5005835;28;20028;-70
2021/04/30 18:13:14;;;;;;;16.00;11.45;;;;;;;;;;5022588;28;20057;-70
2021/04/30 18:15:40;;;;;;;15.63;10.90;;;;;;;;;;5021898;28;20141;-69
2021/04/30 18:18:07;;;;;;;15.50;11.00;;;;;;;;;;5024112;28;20141;-71
2021/04/30 18:20:34;;;;;;;18.10;11.70;;;;;;;;;;5022467;28;20417;-70
2021/04/30 18:23:00;;;;;;;13.43;10.68;;;;;;;;;;5024008;28;20101;-69
2021/04/30 18:25:26;;;;;;;14.95;10.88;;;;;;;;;;5024070;28;20057;-70
2021/04/30 18:27:55;;;;;;;17.20;13.32;;;;;;;;;;5013621;28;20057;-70
2021/04/30 18:30:22;;;;;;;15.25;11.57;;;;;;;;;;5010399;28;20029;-69
2021/04/30 18:32:48;;;;;;;18.42;11.98;;;;;;;;;;5009756;28;20042;-70
2021/04/30 18:35:15;;;;;;;15.55;11.90;;;;;;;;;;4997884;28;20406;-71
2021/04/30 18:37:41;;;;;;;16.13;11.80;;;;;;;;;;5012839;28;20079;-70
2021/04/30 18:40:08;;;;;;;15.13;11.80;;;;;;;;;;5006305;28;20033;-70
2021/04/30 18:42:34;;;;;;;19.02;14.25;;;;;;;;;;5010341;28;20028;-71
2021/04/30 18:45:00;;;;;;;18.92;12.85;;;;;;;;;;5010882;28;20109;-70
2021/04/30 18:47:26;;;;;;;16.17;12.63;;;;;;;;;;5012467;28;20117;-70
2021/04/30 18:49:52;;;;;;;18.30;13.63;;;;;;;;;;5029623;28;20029;-71
2021/04/30 18:52:19;;;;;;;15.40;12.30;;;;;;;;;;5029242;28;20091;-70
2021/04/30 18:54:45;;;;;;;20.20;13.63;;;;;;;;;;5029532;28;20030;-71
2021/04/30 18:57:11;;;;;;;17.52;13.00;;;;;;;;;;5012944;28;20022;-71
2021/04/30 18:59:37;;;;;;;15.65;12.30;;;;;;;;;;5029348;28;20026;-70
2021/04/30 19:02:03;;;;;;;13.93;11.80;;;;;;;;;;5029648;28;20037;-71
2021/04/30 19:04:29;;;;;;;14.38;11.75;;;;;;;;;;5006416;28;20034;-70
2021/04/30 19:06:55;;;;;;;19.98;12.35;;;;;;;;;;5009716;28;20030;-71
2021/04/30 19:09:22;;;;;;;15.57;13.70;;;;;;;;;;5010280;28;20034;-70
2021/04/30 19:11:48;;;;;;;15.52;13.30;;;;;;;;;;5009666;28;20663;-70
2021/04/30 19:14:14;;;;;;;17.77;13.95;;;;;;;;;;5009201;28;20077;-71
2021/04/30 19:16:41;;;;;;;17.73;14.02;;;;;;;;;;5008516;28;20113;-70
2021/04/30 19:19:10;;;;;;;21.95;14.77;;;;;;;;;;4991833;28;20517;-70
2021/04/30 19:21:36;;;;;;;19.75;14.43;;;;;;;;;;4990813;28;20433;-70
2021/04/30 19:24:02;;;;;;;17.58;14.35;;;;;;;;;;4998992;28;20042;-70
2021/04/30 19:26:32;;;;;;;18.75;14.15;;;;;;;;;;5009037;28;21623;-70
2021/04/30 19:28:58;;;;;;;19.52;14.63;;;;;;;;;;5008674;28;20026;-70
2021/04/30 19:31:24;;;;;;;16.00;13.55;;;;;;;;;;4989314;28;20053;-71
2021/04/30 19:33:50;;;;;;;19.48;14.02;;;;;;;;;;4997654;28;20031;-70
2021/04/30 19:36:16;;;;;;;19.02;13.30;;;;;;;;;;4998191;28;20495;-70
2021/04/30 19:38:42;;;;;;;17.88;13.85;;;;;;;;;;4996042;28;20053;-70
2021/04/30 19:41:08;;;;;;;17.75;13.77;;;;;;;;;;4979769;28;20054;-70
2021/04/30 19:43:35;;;;;;;17.20;14.20;;;;;;;;;;4974735;28;20092;-72
2021/04/30 19:46:01;;;;;;;17.73;13.57;;;;;;;;;;5010470;28;20034;-71
2021/04/30 19:48:30;;;;;;;22.73;14.23;;;;;;;;;;5012652;28;20405;-70
2021/04/30 19:50:58;;;;;;;20.35;14.88;;;;;;;;;;4979077;28;20524;-69
2021/04/30 19:53:24;;;;;;;19.90;14.70;;;;;;;;;;5012698;28;20022;-70
2021/04/30 19:55:51;;;;;;;16.77;14.35;;;;;;;;;;5012664;28;20030;-69
2021/04/30 19:58:17;;;;;;;19.90;15.02;;;;;;;;;;4995353;28;20022;-69
2021/04/30 20:00:49;;;;;;;16.58;13.45;;;;;;;;;;5004326;28;20018;-69
2021/04/30 20:03:15;;;;;;;17.60;14.40;;;;;;;;;;4986253;28;20026;-69
2021/04/30 20:05:44;;;;;;;21.92;15.85;;;;;;;;;;5002388;28;20026;-70
2021/04/30 20:08:28;;;;;;;19.17;14.88;;;;;;;;;;5001844;28;20121;-69
2021/04/30 20:10:57;;;;;;;19.00;14.82;;;;;;;;;;5000858;28;20033;-70
2021/04/30 20:13:23;;;;;;;17.90;13.68;;;;;;;;;;5003482;28;20017;-71
2021/04/30 20:15:50;;;;;;;19.80;14.38;;;;;;;;;;5011483;28;20022;-69
2021/04/30 20:18:16;;;;;;;19.85;14.93;;;;;;;;;;5012103;28;20483;-71
2021/04/30 20:20:42;;;;;;;17.38;13.90;;;;;;;;;;5011508;28;20026;-71
2021/04/30 20:23:08;;;;;;;18.90;14.18;;;;;;;;;;4994747;28;20048;-72
2021/04/30 20:25:35;;;;;;;17.52;14.57;;;;;;;;;;5012105;28;20101;-70
2021/04/30 20:28:01;;;;;;;18.23;14.38;;;;;;;;;;4995732;28;20033;-70
2021/04/30 20:30:28;;;;;;;18.80;15.25;;;;;;;;;;4993774;28;20104;-70
2021/04/30 20:32:58;;;;;;;17.48;15.18;;;;;;;;;;5012184;28;20025;-70
2021/04/30 20:35:24;;;;;;;17.25;14.93;;;;;;;;;;5003944;28;20108;-70
2021/04/30 20:37:50;;;;;;;19.00;14.40;;;;;;;;;;5012619;28;20021;-70
2021/04/30 20:40:17;;;;;;;21.67;15.23;;;;;;;;;;5010894;28;20033;-71
2021/04/30 20:42:44;;;;;;;21.00;15.43;;;;;;;;;;4995312;28;20076;-70
2021/04/30 20:45:10;;;;;;;21.85;15.48;;;;;;;;;;5002806;28;20533;-69
2021/04/30 20:47:36;;;;;;;18.23;15.73;;;;;;;;;;5008836;28;20083;-69
2021/04/30 20:50:04;;;;;;;20.60;16.27;;;;;;;;;;5031289;28;20033;-68
2021/04/30 20:52:30;;;;;;;21.85;17.27;;;;;;;;;;5014577;28;20030;-69
2021/04/30 20:54:56;;;;;;;19.38;16.60;;;;;;;;;;5032027;28;20448;-69
2021/04/30 20:57:22;;;;;;;23.42;16.13;;;;;;;;;;5031507;28;20060;-69
2021/04/30 20:59:48;;;;;;;24.08;16.98;;;;;;;;;;5031101;28;20036;-69
2021/04/30 21:02:14;;;;;;;20.95;16.80;;;;;;;;;;5031839;28;20029;-68
2021/04/30 21:04:40;;;;;;;22.88;17.23;;;;;;;;;;5031870;28;20437;-69
2021/04/30 21:07:06;;;;;;;23.00;17.25;;;;;;;;;;5031802;28;20052;-69
2021/04/30 21:09:39;;;;;;;20.02;16.70;;;;;;;;;;5031227;28;20490;-69
2021/04/30 21:12:18;;;;;;;24.30;17.83;;;;;;;;;;5031873;28;20025;-69
2021/04/30 21:14:44;;;;;;;22.13;17.50;;;;;;;;;;5003740;28;20402;-69
2021/04/30 21:17:13;;;;;;;23.23;17.85;;;;;;;;;;5011885;28;20026;-69
2021/04/30 21:19:40;;;;;;;24.20;17.83;;;;;;;;;;5011426;28;20018;-69
2021/04/30 21:22:08;;;;;;;23.20;17.73;;;;;;;;;;5011979;28;20022;-69
2021/04/30 21:24:35;;;;;;;22.60;18.35;;;;;;;;;;5017126;28;20037;-70
2021/04/30 21:27:02;;;;;;;26.08;19.63;;;;;;;;;;5031649;28;20034;-69
2021/04/30 21:29:28;;;;;;;26.90;19.38;;;;;;;;;;5031084;28;20505;-69
2021/04/30 21:31:54;;;;;;;24.08;17.75;;;;;;;;;;5031269;28;20052;-69
2021/04/30 21:34:21;;;;;;;26.70;20.08;;;;;;;;;;5031631;28;20486;-70
2021/04/30 21:36:47;;;;;;;25.10;21.10;;;;;;;;;;5013824;28;20033;-68
2021/04/30 21:39:13;;;;;;;28.20;20.80;;;;;;;;;;5002743;28;20030;-71
2021/04/30 21:41:40;;;;;;;32.65;21.45;;;;;;;;;;5011235;28;20053;-69
2021/04/30 21:44:06;;;;;;;32.63;24.08;;;;;;;;;;5011844;28;20025;-70
2021/04/30 21:46:34;;;;;;;31.10;22.10;;;;;;;;;;5011562;28;20026;-70
2021/04/30 21:49:00;;;;;;;34.20;23.25;;;;;;;;;;4994348;28;20550;-70
2021/04/30 21:51:26;;;;;;;32.67;23.20;;;;;;;;;;5011064;28;20471;-69
2021/04/30 21:53:52;;;;;;;31.38;23.23;;;;;;;;;;5011729;28;20124;-69
2021/04/30 21:56:18;;;;;;;27.80;22.17;;;;;;;;;;5030784;28;20025;-69
2021/04/30 21:58:44;;;;;;;31.83;23.13;;;;;;;;;;5031364;28;20022;-69
2021/04/30 22:01:30;;;;;;;30.42;22.25;;;;;;;;;;5012739;28;20029;-68
2021/04/30 22:03:57;;;;;;;30.05;22.95;;;;;;;;;;5035009;28;20431;-69
2021/04/30 22:06:23;;;;;;;30.58;22.50;;;;;;;;;;5035383;28;20049;-70
2021/04/30 22:08:49;;;;;;;34.88;25.02;;;;;;;;;;5035164;28;20491;-69
2021/04/30 22:11:16;;;;;;;34.33;24.02;;;;;;;;;;5032864;28;20025;-69
2021/04/30 22:13:42;;;;;;;33.80;24.60;;;;;;;;;;5013491;28;20068;-69
2021/04/30 22:16:08;;;;;;;37.95;25.20;;;;;;;;;;5015306;28;20398;-69
2021/04/30 22:18:34;;;;;;;33.40;24.58;;;;;;;;;;5022326;28;20021;-69
2021/04/30 22:21:01;;;;;;;35.45;25.55;;;;;;;;;;5034295;28;20067;-69
2021/04/30 22:23:27;;;;;;;35.58;25.45;;;;;;;;;;5034866;28;20018;-68
2021/04/30 22:25:53;;;;;;;36.95;26.90;;;;;;;;;;5034754;28;20025;-69
2021/04/30 22:28:19;;;;;;;38.38;25.45;;;;;;;;;;5033035;28;20116;-69
2021/04/30 22:30:45;;;;;;;33.70;23.45;;;;;;;;;;5033783;28;20101;-69
2021/04/30 22:33:11;;;;;;;37.83;25.90;;;;;;;;;;5034696;28;20469;-69
2021/04/30 22:35:37;;;;;;;32.83;24.08;;;;;;;;;;5034642;28;20104;-69
2021/04/30 22:38:03;;;;;;;38.42;26.05;;;;;;;;;;5033529;28;20018;-70
2021/04/30 22:40:29;;;;;;;37.85;26.13;;;;;;;;;;5013783;28;20497;-69
2021/04/30 22:42:55;;;;;;;36.25;26.15;;;;;;;;;;5014577;28;20029;-69
2021/04/30 22:45:22;;;;;;;38.75;27.33;;;;;;;;;;5015441;28;20112;-69
2021/04/30 22:47:48;;;;;;;45.08;27.10;;;;;;;;;;5014483;28;20502;-72
2021/04/30 22:50:14;;;;;;;43.05;29.60;;;;;;;;;;5032643;28;20068;-70
2021/04/30 22:52:40;;;;;;;49.47;30.55;;;;;;;;;;5016516;28;20026;-69
2021/04/30 22:55:07;;;;;;;47.10;31.23;;;;;;;;;;5034039;28;20031;-70
2021/04/30 22:57:33;;;;;;;49.65;31.35;;;;;;;;;;5033950;28;20041;-69
2021/04/30 22:59:59;;;;;;;57.05;31.92;;;;;;;;;;5015583;28;20509;-69
2021/04/30 23:02:26;;;;;;;48.65;31.17;;;;;;;;;;5016228;28;20053;-69
2021/04/30 23:04:52;;;;;;;49.28;30.50;;;;;;;;;;5032609;28;20094;-69
2021/04/30 23:07:19;;;;;;;50.00;31.67;;;;;;;;;;5034102;28;20025;-68
2021/04/30 23:09:45;;;;;;;47.03;30.30;;;;;;;;;;5015516;28;20028;-71
2021/04/30 23:12:11;;;;;;;47.05;28.80;;;;;;;;;;5005440;28;20037;-71
